createdAt,value
2022-10-18T00:00:43.845Z,15.40
2022-10-18T00:03:32.245Z,15.30
2022-10-18T00:06:00.879Z,13.80
2022-10-18T00:08:29.263Z,14.00
2022-10-18T00:10:57.162Z,13.10
2022-10-18T00:13:25.088Z,14.20
2022-10-18T00:15:55.820Z,16.70
2022-10-18T00:18:23.800Z,13.60
2022-10-18T00:21:18.992Z,13.90
2022-10-18T00:23:48.382Z,12.60
2022-10-18T00:26:19.317Z,13.00
2022-10-18T00:28:50.602Z,16.00
2022-10-18T00:31:22.024Z,12.50
2022-10-18T00:33:53.032Z,14.70
2022-10-18T00:36:21.757Z,14.40
2022-10-18T00:38:49.721Z,12.90
2022-10-18T00:41:21.784Z,15.00
2022-10-18T00:44:28.013Z,12.00
2022-10-18T00:46:59.704Z,13.60
2022-10-18T00:49:39.857Z,12.30
2022-10-18T00:52:12.095Z,15.10
2022-10-18T00:54:42.353Z,13.90
2022-10-18T00:57:10.505Z,13.40
2022-10-18T00:59:38.694Z,11.30
2022-10-18T01:02:07.408Z,14.00
2022-10-18T01:04:35.315Z,11.50
2022-10-18T01:07:32.037Z,11.90
2022-10-18T01:09:59.952Z,13.00
2022-10-18T01:12:30.508Z,12.20
2022-10-18T01:15:21.244Z,10.70
2022-10-18T01:18:19.441Z,14.30
2022-10-18T01:21:13.228Z,10.50
2022-10-18T01:24:00.283Z,9.80
2022-10-18T01:26:55.657Z,11.90
2022-10-18T01:30:00.984Z,14.20
2022-10-18T01:32:40.032Z,11.40
2022-10-18T01:35:13.418Z,14.10
2022-10-18T01:37:45.793Z,13.40
2022-10-18T01:40:17.333Z,12.00
2022-10-18T01:42:47.668Z,10.20
2022-10-18T01:45:16.918Z,11.70
2022-10-18T01:47:46.655Z,18.40
2022-10-18T01:50:14.670Z,9.20
2022-10-18T01:52:51.996Z,12.90
2022-10-18T01:55:32.683Z,16.50
2022-10-18T01:58:10.805Z,15.90
2022-10-18T02:00:44.928Z,11.80
2022-10-18T02:03:24.083Z,13.80
2022-10-18T02:05:58.323Z,11.40
2022-10-18T02:08:44.866Z,10.20
2022-10-18T02:11:15.187Z,11.10
2022-10-18T02:13:49.889Z,9.00
2022-10-18T02:16:21.555Z,10.60
2022-10-18T02:19:05.395Z,10.50
2022-10-18T02:21:34.279Z,11.80
2022-10-18T02:24:03.539Z,15.30
2022-10-18T02:26:31.366Z,9.70
2022-10-18T02:28:59.122Z,10.80
2022-10-18T02:31:41.123Z,12.00
2022-10-18T02:34:21.074Z,11.60
2022-10-18T02:36:55.184Z,12.00
2022-10-18T02:39:29.910Z,8.90
2022-10-18T02:41:58.301Z,9.90
2022-10-18T02:44:26.457Z,13.00
2022-10-18T02:46:54.426Z,12.00
2022-10-18T02:49:22.582Z,11.60
2022-10-18T02:51:50.258Z,10.00
2022-10-18T02:54:17.874Z,16.30
2022-10-18T02:56:45.597Z,10.80
2022-10-18T02:59:13.239Z,12.10
2022-10-18T03:01:40.975Z,10.50
2022-10-18T03:04:09.176Z,10.90
2022-10-18T03:06:36.961Z,12.20
2022-10-18T03:09:06.331Z,9.70
2022-10-18T03:11:34.131Z,8.90
2022-10-18T03:14:01.969Z,11.60
2022-10-18T03:16:29.836Z,11.40
2022-10-18T03:18:57.495Z,10.90
2022-10-18T03:21:25.159Z,12.10
2022-10-18T03:23:52.762Z,10.40
2022-10-18T03:26:21.721Z,10.10
2022-10-18T03:28:49.459Z,13.30
2022-10-18T03:31:17.407Z,9.60
2022-10-18T03:33:45.203Z,12.70
2022-10-18T03:36:12.966Z,13.40
2022-10-18T03:38:40.729Z,11.10
2022-10-18T03:41:08.493Z,10.00
2022-10-18T03:43:36.077Z,9.80
2022-10-18T03:46:03.916Z,9.80
2022-10-18T03:48:31.572Z,11.40
2022-10-18T03:50:59.248Z,10.50
2022-10-18T03:53:26.863Z,8.60
2022-10-18T03:55:56.033Z,8.80
2022-10-18T03:58:24.228Z,12.00
2022-10-18T04:00:53.172Z,9.40
2022-10-18T04:03:22.655Z,12.40
2022-10-18T04:05:50.610Z,13.20
2022-10-18T04:08:18.845Z,9.60
2022-10-18T04:10:46.720Z,10.40
2022-10-18T04:13:14.306Z,9.40
2022-10-18T04:15:43.006Z,10.00
2022-10-18T04:18:10.670Z,11.60
2022-10-18T04:20:38.473Z,11.90
2022-10-18T04:23:06.158Z,11.00
2022-10-18T04:25:33.814Z,9.50
2022-10-18T04:28:01.503Z,13.50
2022-10-18T04:30:29.094Z,13.00
2022-10-18T04:32:56.723Z,9.50
2022-10-18T04:35:25.992Z,12.20
2022-10-18T04:37:54.202Z,15.10
2022-10-18T04:40:21.794Z,10.30
2022-10-18T04:42:49.377Z,12.30
2022-10-18T04:45:17.078Z,11.10
2022-10-18T04:47:44.667Z,11.10
2022-10-18T04:50:12.282Z,9.40
2022-10-18T04:52:39.920Z,10.90
2022-10-18T04:55:07.904Z,10.80
2022-10-18T04:57:35.539Z,9.70
2022-10-18T05:00:04.391Z,13.30
2022-10-18T05:02:32.289Z,13.30
2022-10-18T05:04:59.969Z,13.50
2022-10-18T05:07:27.572Z,12.30
2022-10-18T05:09:55.232Z,9.60
2022-10-18T05:12:22.896Z,12.50
2022-10-18T05:14:50.555Z,11.20
2022-10-18T05:17:18.215Z,14.30
2022-10-18T05:19:45.785Z,11.50
2022-10-18T05:22:13.392Z,12.20
2022-10-18T05:24:41.097Z,11.70
2022-10-18T05:27:10.283Z,9.00
2022-10-18T05:29:37.952Z,14.90
2022-10-18T05:32:05.560Z,12.70
2022-10-18T05:34:33.168Z,12.40
2022-10-18T05:37:01.567Z,13.40
2022-10-18T05:39:29.190Z,11.10
2022-10-18T05:41:58.306Z,13.20
2022-10-18T05:44:26.375Z,13.90
2022-10-18T05:46:54.045Z,15.70
2022-10-18T05:49:21.720Z,11.60
2022-10-18T05:51:49.771Z,13.60
2022-10-18T05:54:17.631Z,14.20
2022-10-18T05:56:45.319Z,14.80
2022-10-18T05:59:13.260Z,10.50
2022-10-18T06:01:42.662Z,12.70
2022-10-18T06:04:10.527Z,13.50
2022-10-18T06:06:38.853Z,11.00
2022-10-18T06:09:08.289Z,10.60
2022-10-18T06:11:37.113Z,13.90
2022-10-18T06:14:05.218Z,14.70
2022-10-18T06:16:33.025Z,16.80
2022-10-18T06:19:00.897Z,16.30
2022-10-18T06:21:28.657Z,12.00
2022-10-18T06:23:58.986Z,14.50
2022-10-18T06:26:28.098Z,12.60
2022-10-18T06:28:56.104Z,18.80
2022-10-18T06:31:23.839Z,17.20
2022-10-18T06:33:51.573Z,11.70
2022-10-18T06:36:24.259Z,15.00
2022-10-18T06:38:52.404Z,12.30
2022-10-18T06:41:20.594Z,11.90
2022-10-18T06:43:53.876Z,11.70
2022-10-18T06:46:21.652Z,17.60
2022-10-18T06:48:49.419Z,12.90
2022-10-18T06:51:18.444Z,17.20
2022-10-18T06:53:59.234Z,12.50
2022-10-18T06:56:35.219Z,11.60
2022-10-18T06:59:02.998Z,16.00
2022-10-18T07:01:31.055Z,12.80
2022-10-18T07:03:58.852Z,11.90
2022-10-18T07:06:26.924Z,26.50
2022-10-18T07:08:54.874Z,16.20
2022-10-18T07:11:25.834Z,13.30
2022-10-18T07:13:55.440Z,13.20
2022-10-18T07:16:23.156Z,12.60
2022-10-18T07:18:51.771Z,14.60
2022-10-18T07:21:22.391Z,10.70
2022-10-18T07:23:51.694Z,16.10
2022-10-18T07:26:25.332Z,13.50
2022-10-18T07:28:57.970Z,11.20
2022-10-18T07:31:26.239Z,16.10
2022-10-18T07:33:54.616Z,17.00
2022-10-18T07:36:22.517Z,12.10
2022-10-18T07:38:52.086Z,11.90
2022-10-18T07:41:20.283Z,15.10
2022-10-18T07:43:51.048Z,11.70
2022-10-18T07:46:20.927Z,15.70
2022-10-18T07:48:49.322Z,13.00
2022-10-18T07:51:18.688Z,19.10
2022-10-18T07:53:46.310Z,14.20
2022-10-18T07:56:16.634Z,11.70
2022-10-18T07:58:46.211Z,13.40
2022-10-18T08:01:14.859Z,14.80
2022-10-18T08:03:43.459Z,15.00
2022-10-18T08:06:13.085Z,14.40
2022-10-18T08:08:41.294Z,12.50
2022-10-18T08:11:11.768Z,14.70
2022-10-18T08:13:39.509Z,14.60
2022-10-18T08:16:09.824Z,13.00
2022-10-18T08:18:38.205Z,14.00
2022-10-18T08:21:08.742Z,14.30
2022-10-18T08:23:37.440Z,13.10
2022-10-18T08:26:08.736Z,17.40
2022-10-18T08:28:37.131Z,13.50
2022-10-18T08:31:07.879Z,14.30
2022-10-18T08:33:36.292Z,11.10
2022-10-18T08:36:06.212Z,12.20
2022-10-18T08:38:36.171Z,14.20
2022-10-18T08:41:37.925Z,14.60
2022-10-18T08:44:14.309Z,17.10
2022-10-18T08:46:45.939Z,16.10
2022-10-18T08:49:28.585Z,12.30
2022-10-18T08:51:57.875Z,16.80
2022-10-18T08:54:44.487Z,15.70
2022-10-18T08:57:16.059Z,18.00
2022-10-18T08:59:44.513Z,14.80
2022-10-18T09:02:33.740Z,12.90
2022-10-18T09:05:10.755Z,17.10
2022-10-18T09:08:11.687Z,16.50
2022-10-18T09:11:02.062Z,16.00
2022-10-18T09:14:02.319Z,18.10
2022-10-18T09:16:50.339Z,16.10
2022-10-18T09:19:29.733Z,22.00
2022-10-18T09:22:07.460Z,17.80
2022-10-18T09:24:52.170Z,27.10
2022-10-18T09:27:22.572Z,15.60
2022-10-18T09:30:08.464Z,18.90
2022-10-18T09:32:48.728Z,17.40
2022-10-18T09:35:33.963Z,16.60
2022-10-18T09:38:05.833Z,15.90
2022-10-18T09:40:37.837Z,17.10
2022-10-18T09:43:17.251Z,13.40
2022-10-18T09:45:47.162Z,15.80
2022-10-18T09:48:21.233Z,19.50
2022-10-18T09:51:03.480Z,17.50
2022-10-18T09:53:38.644Z,14.80
2022-10-18T09:58:48.490Z,19.70
2022-10-18T10:01:24.740Z,15.60
2022-10-18T10:03:53.146Z,14.60
2022-10-18T10:06:49.754Z,15.10
2022-10-18T10:09:21.370Z,14.70
2022-10-18T10:11:50.989Z,15.60
2022-10-18T10:14:23.184Z,20.70
2022-10-18T10:16:52.691Z,19.40
2022-10-18T10:19:42.737Z,20.00
2022-10-18T10:22:13.299Z,19.80
2022-10-18T10:24:51.099Z,19.60
2022-10-18T10:27:18.960Z,15.60
2022-10-18T10:29:46.682Z,14.20
2022-10-18T10:32:17.407Z,17.00
2022-10-18T10:34:45.425Z,24.10
2022-10-18T10:37:37.790Z,19.60
2022-10-18T10:40:17.979Z,20.50
2022-10-18T10:43:12.813Z,16.80
2022-10-18T10:45:58.499Z,17.80
2022-10-18T10:48:32.335Z,20.30
2022-10-18T10:51:06.219Z,18.10
2022-10-18T10:53:57.634Z,20.50
2022-10-18T10:56:29.696Z,16.60
2022-10-18T10:59:07.419Z,16.40
2022-10-18T11:01:36.483Z,22.20
2022-10-18T11:04:24.083Z,18.70
2022-10-18T11:07:09.181Z,19.90
2022-10-18T11:09:51.610Z,19.00
2022-10-18T11:12:37.966Z,20.80
2022-10-18T11:15:18.350Z,20.70
2022-10-18T11:17:57.587Z,18.10
2022-10-18T11:20:35.278Z,20.70
2022-10-18T11:23:07.440Z,18.90
2022-10-18T11:26:02.551Z,21.00
2022-10-18T11:28:32.965Z,18.70
2022-10-18T11:31:27.563Z,16.40
2022-10-18T11:34:11.687Z,16.30
2022-10-18T11:37:30.082Z,20.40
2022-10-18T11:40:16.985Z,17.10
2022-10-18T11:43:10.440Z,22.10
2022-10-18T11:45:53.260Z,18.00
2022-10-18T11:48:26.752Z,17.60
2022-10-18T11:51:06.396Z,20.70
2022-10-18T11:54:06.831Z,19.70
2022-10-18T11:56:49.517Z,17.30
2022-10-18T11:59:52.116Z,24.30
2022-10-18T12:02:49.896Z,20.70
2022-10-18T12:05:23.668Z,23.00
2022-10-18T12:08:10.891Z,19.00
2022-10-18T12:10:59.859Z,22.00
2022-10-18T12:13:36.946Z,19.90
2022-10-18T12:16:06.979Z,17.30
2022-10-18T12:18:41.715Z,18.50
2022-10-18T12:21:12.866Z,21.60
2022-10-18T12:23:46.750Z,18.90
2022-10-18T12:26:15.171Z,18.00
2022-10-18T12:28:53.858Z,20.40
2022-10-18T12:31:49.254Z,21.60
2022-10-18T12:34:22.742Z,23.50
2022-10-18T12:39:51.842Z,18.40
2022-10-18T12:42:33.382Z,26.50
2022-10-18T12:45:19.737Z,24.00
2022-10-18T12:47:47.425Z,19.10
2022-10-18T12:50:27.253Z,17.90
2022-10-18T12:53:10.167Z,19.70
2022-10-18T12:55:44.269Z,20.60
2022-10-18T12:58:15.012Z,20.80
2022-10-18T13:00:42.668Z,18.70
2022-10-18T13:03:13.196Z,21.30
2022-10-18T13:05:54.521Z,21.50
2022-10-18T13:08:30.145Z,16.60
2022-10-18T13:11:10.256Z,23.00
2022-10-18T13:14:00.518Z,20.50
2022-10-18T13:16:31.176Z,22.00
2022-10-18T13:19:10.822Z,17.30
2022-10-18T13:22:13.627Z,17.60
2022-10-18T13:25:04.209Z,20.70
2022-10-18T13:27:38.406Z,22.10
2022-10-18T13:30:05.953Z,21.00
2022-10-18T13:33:08.676Z,20.40
2022-10-18T13:35:54.890Z,19.70
2022-10-18T13:39:02.814Z,24.20
2022-10-18T13:41:56.551Z,23.90
2022-10-18T13:44:40.496Z,20.50
2022-10-18T13:47:11.084Z,20.60
2022-10-18T13:49:38.675Z,21.40
2022-10-18T13:52:41.836Z,18.40
2022-10-18T13:55:32.565Z,21.40
2022-10-18T13:58:22.049Z,19.70
2022-10-18T14:00:52.885Z,19.00
2022-10-18T14:04:10.418Z,18.50
2022-10-18T14:06:44.026Z,29.70
2022-10-18T14:12:23.961Z,23.10
2022-10-18T14:15:10.492Z,22.80
2022-10-18T14:17:44.497Z,21.00
2022-10-18T14:20:19.533Z,18.60
2022-10-18T14:23:01.731Z,20.60
2022-10-18T14:25:32.943Z,24.00
2022-10-18T14:28:36.300Z,19.80
2022-10-18T14:31:14.890Z,25.30
2022-10-18T14:33:43.779Z,19.00
2022-10-18T14:36:19.118Z,25.20
2022-10-18T14:39:05.259Z,25.80
2022-10-18T14:41:35.495Z,23.60
2022-10-18T14:44:14.972Z,21.70
2022-10-18T14:46:46.933Z,22.50
2022-10-18T14:49:15.590Z,24.20
2022-10-18T14:51:45.838Z,23.40
2022-10-18T14:54:19.692Z,27.70
2022-10-18T14:56:48.140Z,27.80
2022-10-18T14:59:21.989Z,25.80
2022-10-18T15:01:56.048Z,25.70
2022-10-18T15:04:32.596Z,24.50
2022-10-18T15:07:03.140Z,30.80
2022-10-18T15:09:33.460Z,29.20
2022-10-18T15:12:05.728Z,31.60
2022-10-18T15:14:34.830Z,23.40
2022-10-18T15:17:14.011Z,25.90
2022-10-18T15:19:54.401Z,31.00
2022-10-18T15:22:32.200Z,25.90
2022-10-18T15:25:09.453Z,23.60
2022-10-18T15:30:43.195Z,25.90
2022-10-18T15:33:23.367Z,27.30
2022-10-18T15:35:52.731Z,30.30
2022-10-18T15:38:21.663Z,31.00
2022-10-18T15:40:50.018Z,31.00
2022-10-18T15:43:24.204Z,27.20
2022-10-18T15:46:05.277Z,31.00
2022-10-18T15:48:40.516Z,31.90
2022-10-18T15:51:24.292Z,36.30
2022-10-18T15:53:55.423Z,25.50
2022-10-18T15:56:35.710Z,12.50
2022-10-18T15:59:23.762Z,16.20
2022-10-18T16:01:52.344Z,11.60
2022-10-18T16:04:24.233Z,9.00
2022-10-18T16:06:52.528Z,9.90
2022-10-18T16:09:22.118Z,9.20
2022-10-18T16:11:56.387Z,12.50
2022-10-18T16:14:26.044Z,14.70
2022-10-18T16:16:56.584Z,22.40
2022-10-18T16:19:24.452Z,15.50
2022-10-18T16:21:54.161Z,13.20
2022-10-18T16:24:22.952Z,13.00
2022-10-18T16:26:51.342Z,12.40
2022-10-18T16:29:24.509Z,11.60
2022-10-18T16:31:53.712Z,16.10
2022-10-18T16:34:33.058Z,15.40
2022-10-18T16:37:01.237Z,12.50
2022-10-18T16:39:32.173Z,13.50
2022-10-18T16:41:59.976Z,14.80
2022-10-18T16:44:28.093Z,14.30
2022-10-18T16:46:56.440Z,18.40
2022-10-18T16:49:26.066Z,18.80
2022-10-18T16:51:54.348Z,19.00
2022-10-18T16:54:22.941Z,17.10
2022-10-18T16:56:50.697Z,20.90
2022-10-18T16:59:30.185Z,21.30
2022-10-18T17:01:58.009Z,24.90
2022-10-18T17:04:25.867Z,25.40
2022-10-18T17:06:57.289Z,26.30
2022-10-18T17:09:25.185Z,31.20
2022-10-18T17:11:52.841Z,27.60
2022-10-18T17:14:20.708Z,28.00
2022-10-18T17:16:52.319Z,31.00
2022-10-18T17:19:23.606Z,30.10
2022-10-18T17:21:51.233Z,27.00
2022-10-18T17:24:18.828Z,25.90
2022-10-18T17:26:46.502Z,23.30
2022-10-18T17:29:14.328Z,13.10
2022-10-18T17:31:42.101Z,9.10
2022-10-18T17:34:09.724Z,8.70
2022-10-18T17:36:38.132Z,8.60
2022-10-18T17:39:05.742Z,9.30
2022-10-18T17:41:33.474Z,9.30
2022-10-18T17:44:03.701Z,12.40
2022-10-18T17:46:31.975Z,8.50
2022-10-18T17:48:59.581Z,10.50
2022-10-18T17:51:27.173Z,7.90
2022-10-18T17:53:54.848Z,11.90
2022-10-18T17:56:22.525Z,14.80
2022-10-18T17:58:51.613Z,12.10
2022-10-18T18:01:23.842Z,11.30
2022-10-18T18:03:57.269Z,10.30
2022-10-18T18:06:34.174Z,15.80
2022-10-18T18:09:07.331Z,13.20
2022-10-18T18:11:36.681Z,12.20
2022-10-18T18:14:09.732Z,20.00
2022-10-18T18:16:40.131Z,24.40
2022-10-18T18:19:10.079Z,16.80
2022-10-18T18:21:39.409Z,13.50
2022-10-18T18:24:08.168Z,10.70
2022-10-18T18:26:37.611Z,13.00
2022-10-18T18:29:05.505Z,11.30
2022-10-18T18:31:38.754Z,10.60
2022-10-18T18:34:09.824Z,11.70
2022-10-18T18:36:37.511Z,8.10
2022-10-18T18:39:06.019Z,9.50
2022-10-18T18:41:33.756Z,9.00
2022-10-18T18:44:04.484Z,10.00
2022-10-18T18:46:36.937Z,9.50
2022-10-18T18:49:06.183Z,9.60
2022-10-18T18:51:37.449Z,8.00
2022-10-18T18:54:05.660Z,7.60
2022-10-18T18:56:34.141Z,8.50
2022-10-18T18:59:02.332Z,6.80
2022-10-18T19:01:33.302Z,7.80
2022-10-18T19:04:01.508Z,9.70
2022-10-18T19:06:32.172Z,8.80
2022-10-18T19:09:04.936Z,10.00
2022-10-18T19:11:36.144Z,11.00
2022-10-18T19:14:04.612Z,10.80
2022-10-18T19:16:36.256Z,8.20
2022-10-18T19:19:14.256Z,10.10
2022-10-18T19:21:47.524Z,8.10
2022-10-18T19:24:15.687Z,11.10
2022-10-18T19:26:49.401Z,8.80
2022-10-18T19:29:24.647Z,11.10
2022-10-18T19:31:54.561Z,11.60
2022-10-18T19:34:24.285Z,10.50
2022-10-18T19:36:52.409Z,13.40
2022-10-18T19:39:25.708Z,14.20
2022-10-18T19:41:56.361Z,14.00
2022-10-18T19:44:27.512Z,12.90
2022-10-18T19:46:55.469Z,14.10
2022-10-18T19:49:23.441Z,16.90
2022-10-18T19:51:51.101Z,13.20
2022-10-18T19:54:18.743Z,14.60
2022-10-18T19:56:46.929Z,17.10
2022-10-18T19:59:17.037Z,16.40
2022-10-18T20:01:45.540Z,17.00
2022-10-18T20:04:13.500Z,17.30
2022-10-18T20:06:42.804Z,17.10
2022-10-18T20:09:14.682Z,13.90
2022-10-18T20:11:45.594Z,15.00
2022-10-18T20:14:13.258Z,16.50
2022-10-18T20:16:41.224Z,15.20
2022-10-18T20:19:09.700Z,13.70
2022-10-18T20:21:37.434Z,13.30
2022-10-18T20:24:06.596Z,16.20
2022-10-18T20:26:35.839Z,14.80
2022-10-18T20:29:04.350Z,15.20
2022-10-18T20:31:35.783Z,14.70
2022-10-18T20:34:09.121Z,15.70
2022-10-18T20:36:37.248Z,14.70
2022-10-18T20:39:06.533Z,15.10
2022-10-18T20:41:38.109Z,14.70
2022-10-18T20:44:10.704Z,16.80
2022-10-18T20:46:39.161Z,18.30
2022-10-18T20:49:08.664Z,16.20
2022-10-18T20:51:36.443Z,15.60
2022-10-18T20:56:39.449Z,15.30
2022-10-18T20:59:10.042Z,17.30
2022-10-18T21:01:39.626Z,16.70
2022-10-18T21:04:09.996Z,18.70
2022-10-18T21:06:41.032Z,15.30
2022-10-18T21:09:12.384Z,18.50
2022-10-18T21:11:42.385Z,19.70
2022-10-18T21:14:13.666Z,18.30
2022-10-18T21:16:42.890Z,16.00
2022-10-18T21:19:16.638Z,18.80
2022-10-18T21:21:47.282Z,23.30
2022-10-18T21:24:14.991Z,20.10
2022-10-18T21:26:43.214Z,21.40
2022-10-18T21:29:12.625Z,20.40
2022-10-18T21:31:42.438Z,22.70
2022-10-18T21:34:16.015Z,21.90
2022-10-18T21:36:47.568Z,22.30
2022-10-18T21:39:18.962Z,21.60
2022-10-18T21:41:47.080Z,24.30
2022-10-18T21:44:15.879Z,22.40
2022-10-18T21:46:43.844Z,24.80
2022-10-18T21:49:11.797Z,22.30
2022-10-18T21:51:40.000Z,24.50
2022-10-18T21:54:12.355Z,23.20
2022-10-18T21:56:40.653Z,23.60
2022-10-18T21:59:11.175Z,24.60
2022-10-18T22:01:39.875Z,27.00
2022-10-18T22:04:16.999Z,24.10
2022-10-18T22:06:44.633Z,24.20
2022-10-18T22:09:12.275Z,24.40
2022-10-18T22:11:50.282Z,25.40
2022-10-18T22:14:18.002Z,28.20
2022-10-18T22:16:45.776Z,24.20
2022-10-18T22:19:13.645Z,26.70
2022-10-18T22:21:41.240Z,25.10
2022-10-18T22:24:10.056Z,24.30
2022-10-18T22:26:40.828Z,24.70
2022-10-18T22:29:20.901Z,25.60
2022-10-18T22:31:51.099Z,24.70
2022-10-18T22:34:27.538Z,22.30
2022-10-18T22:36:56.447Z,23.80
2022-10-18T22:39:24.838Z,25.20
2022-10-18T22:41:55.905Z,26.00
2022-10-18T22:44:24.246Z,22.40
2022-10-18T22:46:52.094Z,26.80
2022-10-18T22:49:19.770Z,26.00
2022-10-18T22:51:47.534Z,24.20
2022-10-18T22:54:15.302Z,25.50
2022-10-18T22:56:43.259Z,28.60
2022-10-18T22:59:10.856Z,26.50
2022-10-18T23:01:38.791Z,23.90
2022-10-18T23:04:06.453Z,27.50
2022-10-18T23:06:36.071Z,24.00
2022-10-18T23:09:10.581Z,28.20
2022-10-18T23:11:38.226Z,24.50
2022-10-18T23:14:06.849Z,25.60
2022-10-18T23:16:34.587Z,32.40
2022-10-18T23:19:02.555Z,22.90
2022-10-18T23:21:30.212Z,27.60
2022-10-18T23:23:57.985Z,26.20
2022-10-18T23:26:27.904Z,24.70
2022-10-18T23:28:56.471Z,24.20
2022-10-18T23:31:30.277Z,22.80
2022-10-18T23:34:01.009Z,23.70
2022-10-18T23:36:29.390Z,26.90
2022-10-18T23:38:57.297Z,19.90
2022-10-18T23:41:25.837Z,27.00
2022-10-18T23:43:54.021Z,23.70
2022-10-18T23:46:22.182Z,21.40
2022-10-18T23:48:50.235Z,24.60
2022-10-18T23:51:18.333Z,21.50
2022-10-18T23:53:46.477Z,24.90
2022-10-18T23:56:16.302Z,22.60
2022-10-18T23:58:45.158Z,24.40
